createdAt,value
2018-09-20T00:00:02.502Z,7.40
2018-09-20T00:02:30.695Z,7.13
2018-09-20T00:04:58.878Z,6.47
2018-09-20T00:07:27.067Z,7.20
2018-09-20T00:09:55.235Z,7.03
2018-09-20T00:12:23.438Z,7.07
2018-09-20T00:14:51.614Z,6.70
2018-09-20T00:17:19.808Z,6.77
2018-09-20T00:19:47.992Z,7.63
2018-09-20T00:22:16.187Z,8.40
2018-09-20T00:24:44.359Z,7.83
2018-09-20T00:27:12.559Z,6.93
2018-09-20T00:29:40.734Z,6.70
2018-09-20T00:32:08.923Z,6.83
2018-09-20T00:34:37.114Z,7.43
2018-09-20T00:37:05.404Z,7.67
2018-09-20T00:39:33.587Z,6.40
2018-09-20T00:42:01.774Z,7.80
2018-09-20T00:44:29.954Z,6.30
2018-09-20T00:46:58.143Z,7.17
2018-09-20T00:49:26.324Z,6.63
2018-09-20T00:51:54.506Z,7.47
2018-09-20T00:54:22.691Z,8.07
2018-09-20T00:56:50.880Z,6.93
2018-09-20T00:59:19.055Z,7.77
2018-09-20T01:01:47.248Z,6.50
2018-09-20T01:04:15.418Z,7.43
2018-09-20T01:06:43.619Z,7.27
2018-09-20T01:09:12.369Z,7.20
2018-09-20T01:11:41.073Z,7.20
2018-09-20T01:14:09.439Z,7.10
2018-09-20T01:16:37.694Z,7.40
2018-09-20T01:19:05.963Z,7.40
2018-09-20T01:21:34.131Z,6.97
2018-09-20T01:24:02.344Z,7.30
2018-09-20T01:26:30.519Z,8.00
2018-09-20T01:28:58.726Z,7.00
2018-09-20T01:31:26.902Z,7.77
2018-09-20T01:33:55.092Z,7.57
2018-09-20T01:36:23.274Z,7.57
2018-09-20T01:38:51.500Z,6.87
2018-09-20T01:41:19.686Z,7.37
2018-09-20T01:43:47.896Z,8.23
2018-09-20T01:46:16.103Z,7.10
2018-09-20T01:48:44.318Z,8.00
2018-09-20T01:51:12.514Z,7.70
2018-09-20T01:53:40.728Z,8.13
2018-09-20T01:56:13.160Z,7.93
2018-09-20T01:58:41.367Z,8.10
2018-09-20T02:01:09.559Z,7.90
2018-09-20T02:03:37.776Z,7.00
2018-09-20T02:06:06.034Z,7.50
2018-09-20T02:08:34.582Z,7.57
2018-09-20T02:11:02.774Z,6.73
2018-09-20T02:13:30.986Z,7.70
2018-09-20T02:15:59.170Z,6.70
2018-09-20T02:18:27.378Z,6.77
2018-09-20T02:20:55.579Z,7.33
2018-09-20T02:23:23.791Z,7.33
2018-09-20T02:25:51.987Z,7.33
2018-09-20T02:28:20.190Z,6.77
2018-09-20T02:30:48.390Z,7.10
2018-09-20T02:33:16.647Z,6.87
2018-09-20T02:35:44.863Z,8.63
2018-09-20T02:38:13.067Z,6.93
2018-09-20T02:40:41.263Z,7.60
2018-09-20T02:43:09.439Z,7.33
2018-09-20T02:45:37.626Z,7.40
2018-09-20T02:48:05.803Z,7.70
2018-09-20T02:50:33.990Z,7.40
2018-09-20T02:53:02.163Z,7.33
2018-09-20T02:55:30.358Z,7.73
2018-09-20T02:57:58.538Z,8.00
2018-09-20T03:00:26.736Z,7.10
2018-09-20T03:02:54.919Z,7.90
2018-09-20T03:05:23.112Z,7.30
2018-09-20T03:07:51.301Z,7.53
2018-09-20T03:10:19.491Z,8.07
2018-09-20T03:12:47.655Z,7.30
2018-09-20T03:15:15.862Z,7.90
2018-09-20T03:17:44.043Z,7.47
2018-09-20T03:20:12.235Z,7.43
2018-09-20T03:22:40.519Z,7.53
2018-09-20T03:25:08.728Z,7.80
2018-09-20T03:27:36.906Z,7.60
2018-09-20T03:30:05.310Z,8.10
2018-09-20T03:32:33.487Z,7.10
2018-09-20T03:35:01.685Z,7.57
2018-09-20T03:37:29.869Z,7.40
2018-09-20T03:39:58.067Z,7.63
2018-09-20T03:42:26.252Z,7.73
2018-09-20T03:44:54.442Z,7.83
2018-09-20T03:47:22.618Z,7.63
2018-09-20T03:49:50.815Z,8.00
2018-09-20T03:52:18.995Z,7.10
2018-09-20T03:54:47.195Z,8.10
2018-09-20T03:57:15.374Z,7.30
2018-09-20T03:59:43.562Z,7.87
2018-09-20T04:02:11.752Z,7.00
2018-09-20T04:04:39.930Z,7.17
2018-09-20T04:07:08.126Z,7.67
2018-09-20T04:09:36.319Z,7.20
2018-09-20T04:12:04.499Z,9.20
2018-09-20T04:14:32.684Z,7.90
2018-09-20T04:17:00.875Z,8.27
2018-09-20T04:19:29.067Z,8.10
2018-09-20T04:21:57.263Z,7.70
2018-09-20T04:24:25.447Z,7.17
2018-09-20T04:26:53.630Z,8.57
2018-09-20T04:29:21.815Z,7.90
2018-09-20T04:31:50.123Z,8.03
2018-09-20T04:34:18.272Z,8.27
2018-09-20T04:36:46.461Z,7.50
2018-09-20T04:39:14.672Z,7.80
2018-09-20T04:41:42.882Z,7.47
2018-09-20T04:44:11.078Z,8.83
2018-09-20T04:46:39.290Z,8.20
2018-09-20T04:49:07.502Z,7.60
2018-09-20T04:51:35.723Z,7.73
2018-09-20T04:54:03.930Z,8.10
2018-09-20T04:56:32.141Z,7.30
2018-09-20T04:59:00.347Z,7.80
2018-09-20T05:01:28.560Z,8.63
2018-09-20T05:03:56.871Z,7.80
2018-09-20T05:06:25.092Z,7.50
2018-09-20T05:08:53.288Z,8.33
2018-09-20T05:11:21.490Z,7.43
2018-09-20T05:13:49.709Z,7.57
2018-09-20T05:16:17.922Z,9.50
2018-09-20T05:18:46.110Z,7.73
2018-09-20T05:21:14.327Z,7.10
2018-09-20T05:23:42.530Z,7.73
2018-09-20T05:26:10.739Z,8.43
2018-09-20T05:28:38.956Z,8.57
2018-09-20T05:31:07.168Z,8.20
2018-09-20T05:33:35.384Z,9.30
2018-09-20T05:36:03.588Z,9.40
2018-09-20T05:38:31.795Z,8.30
2018-09-20T05:41:00.006Z,9.23
2018-09-20T05:43:28.276Z,8.93
2018-09-20T05:45:56.443Z,8.30
2018-09-20T05:48:24.748Z,8.50
2018-09-20T05:50:53.040Z,7.93
2018-09-20T05:53:21.266Z,8.50
2018-09-20T05:55:49.482Z,8.77
2018-09-20T05:58:17.702Z,8.10
2018-09-20T06:00:45.919Z,8.73
2018-09-20T06:03:14.138Z,8.80
2018-09-20T06:05:42.483Z,8.33
2018-09-20T06:08:10.662Z,9.47
2018-09-20T06:10:38.867Z,9.73
2018-09-20T06:13:07.125Z,8.60
2018-09-20T06:15:35.282Z,8.60
2018-09-20T06:18:03.536Z,8.90
2018-09-20T06:20:31.743Z,9.00
2018-09-20T06:22:59.984Z,8.33
2018-09-20T06:25:28.230Z,7.90
2018-09-20T06:27:56.486Z,9.43
2018-09-20T06:30:24.691Z,8.93
2018-09-20T06:32:52.938Z,8.57
2018-09-20T06:35:22.023Z,8.60
2018-09-20T06:37:50.515Z,8.80
2018-09-20T06:40:18.883Z,9.03
2018-09-20T06:42:47.101Z,9.47
2018-09-20T06:45:15.307Z,9.50
2018-09-20T06:47:43.510Z,8.33
2018-09-20T06:50:12.000Z,8.90
2018-09-20T06:52:40.470Z,9.50
2018-09-20T06:55:09.066Z,9.87
2018-09-20T06:57:37.640Z,8.57
2018-09-20T07:00:07.255Z,8.90
2018-09-20T07:02:35.932Z,8.23
2018-09-20T07:05:04.938Z,9.70
2018-09-20T07:07:33.122Z,8.90
2018-09-20T07:10:01.636Z,9.33
2018-09-20T07:12:30.268Z,8.67
2018-09-20T07:14:58.657Z,9.33
2018-09-20T07:17:26.853Z,8.80
2018-09-20T07:19:55.143Z,9.70
2018-09-20T07:22:23.351Z,9.80
2018-09-20T07:24:51.590Z,8.93
2018-09-20T07:27:19.839Z,9.27
2018-09-20T07:29:48.048Z,8.67
2018-09-20T07:32:16.246Z,9.00
2018-09-20T07:34:44.435Z,9.10
2018-09-20T07:37:12.627Z,9.80
2018-09-20T07:39:40.850Z,9.83
2018-09-20T07:42:09.051Z,9.10
2018-09-20T07:44:37.267Z,10.10
2018-09-20T07:47:05.467Z,8.80
2018-09-20T07:49:33.684Z,9.10
2018-09-20T07:52:01.963Z,9.97
2018-09-20T07:54:30.182Z,9.30
2018-09-20T07:56:58.386Z,10.20
2018-09-20T07:59:26.608Z,8.33
2018-09-20T08:01:54.872Z,8.53
2018-09-20T08:04:23.041Z,8.50
2018-09-20T08:06:51.238Z,8.93
2018-09-20T08:09:19.455Z,8.23
2018-09-20T08:11:47.662Z,9.10
2018-09-20T08:14:15.878Z,8.27
2018-09-20T08:16:44.089Z,8.47
2018-09-20T08:19:12.355Z,8.07
2018-09-20T08:21:40.676Z,8.67
2018-09-20T08:24:08.799Z,9.10
2018-09-20T08:26:37.015Z,9.00
2018-09-20T08:29:05.322Z,8.33
2018-09-20T08:31:33.527Z,8.33
2018-09-20T08:34:01.750Z,8.30
2018-09-20T08:36:29.995Z,8.83
2018-09-20T08:38:58.205Z,8.87
2018-09-20T08:41:26.406Z,8.60
2018-09-20T08:43:54.596Z,8.43
2018-09-20T08:46:22.779Z,8.10
2018-09-20T08:48:50.976Z,8.63
2018-09-20T08:51:19.171Z,9.60
2018-09-20T08:53:47.346Z,8.77
2018-09-20T08:56:15.550Z,9.27
2018-09-20T08:58:43.727Z,8.40
2018-09-20T09:01:11.924Z,8.00
2018-09-20T09:03:40.096Z,8.40
2018-09-20T09:06:08.289Z,7.87
2018-09-20T09:08:36.471Z,7.60
2018-09-20T09:11:04.661Z,7.60
2018-09-20T09:13:32.842Z,7.30
2018-09-20T09:16:01.095Z,8.03
2018-09-20T09:18:29.287Z,7.43
2018-09-20T09:20:57.478Z,7.53
2018-09-20T09:23:25.671Z,8.27
2018-09-20T09:25:53.855Z,7.67
2018-09-20T09:28:22.039Z,7.10
2018-09-20T09:30:50.227Z,8.10
2018-09-20T09:33:18.398Z,7.30
2018-09-20T09:35:46.591Z,7.73
2018-09-20T09:38:14.775Z,8.30
2018-09-20T09:40:43.003Z,7.67
2018-09-20T09:43:11.198Z,8.03
2018-09-20T09:45:39.399Z,8.03
2018-09-20T09:48:07.668Z,8.10
2018-09-20T09:50:35.827Z,8.50
2018-09-20T09:53:04.026Z,8.90
2018-09-20T09:55:32.237Z,7.80
2018-09-20T09:58:00.451Z,8.23
2018-09-20T10:00:34.206Z,8.83
2018-09-20T10:03:02.421Z,7.63
2018-09-20T10:05:30.624Z,8.73
2018-09-20T10:07:58.869Z,7.43
2018-09-20T10:10:27.027Z,7.07
2018-09-20T10:12:55.240Z,7.63
2018-09-20T10:15:23.433Z,7.43
2018-09-20T10:17:51.684Z,8.50
2018-09-20T10:20:19.892Z,7.93
2018-09-20T10:22:48.114Z,8.00
2018-09-20T10:25:16.312Z,7.47
2018-09-20T10:27:44.530Z,7.70
2018-09-20T10:30:12.728Z,7.43
2018-09-20T10:32:40.935Z,7.30
2018-09-20T10:35:09.224Z,7.60
2018-09-20T10:37:37.455Z,7.10
2018-09-20T10:40:05.778Z,7.20
2018-09-20T10:42:34.103Z,7.57
2018-09-20T10:45:02.319Z,7.20
2018-09-20T10:47:30.539Z,7.47
2018-09-20T10:49:58.751Z,7.60
2018-09-20T10:52:27.291Z,7.63
2018-09-20T10:54:55.529Z,7.57
2018-09-20T10:57:23.808Z,8.10
2018-09-20T10:59:52.117Z,7.80
2018-09-20T11:02:20.607Z,7.63
2018-09-20T11:04:48.815Z,8.57
2018-09-20T11:07:17.090Z,7.70
2018-09-20T11:09:45.367Z,7.83
2018-09-20T11:12:13.669Z,7.43
2018-09-20T11:14:41.963Z,8.47
2018-09-20T11:17:10.189Z,7.53
2018-09-20T11:19:38.405Z,7.40
2018-09-20T11:22:06.619Z,7.17
2018-09-20T11:24:34.871Z,6.13
2018-09-20T11:27:03.089Z,7.27
2018-09-20T11:29:31.376Z,7.17
2018-09-20T11:31:59.616Z,7.17
2018-09-20T11:34:29.540Z,8.17
2018-09-20T11:37:00.607Z,6.60
2018-09-20T11:39:30.599Z,7.13
2018-09-20T11:42:02.092Z,6.60
2018-09-20T11:44:33.224Z,7.10
2018-09-20T11:47:10.522Z,7.40
2018-09-20T11:49:50.432Z,6.87
2018-09-20T11:52:24.442Z,7.00
2018-09-20T11:54:57.634Z,7.20
2018-09-20T11:57:31.152Z,6.50
2018-09-20T12:00:02.378Z,7.07
2018-09-20T12:02:34.376Z,6.60
2018-09-20T12:05:08.339Z,6.90
2018-09-20T12:07:41.954Z,6.47
2018-09-20T12:10:21.597Z,6.30
2018-09-20T12:12:51.747Z,7.40
2018-09-20T12:15:24.192Z,6.67
2018-09-20T12:17:57.382Z,5.97
2018-09-20T12:20:29.448Z,6.17
2018-09-20T12:23:03.792Z,6.17
2018-09-20T12:25:36.651Z,6.13
2018-09-20T12:28:09.354Z,5.90
2018-09-20T12:30:40.905Z,6.87
2018-09-20T12:33:11.114Z,6.57
2018-09-20T12:35:42.725Z,5.87
2018-09-20T12:38:12.850Z,6.10
2018-09-20T12:40:44.554Z,6.40
2018-09-20T12:43:16.028Z,6.50
2018-09-20T12:45:46.533Z,6.60
2018-09-20T12:48:17.500Z,6.10
2018-09-20T12:50:47.695Z,7.10
2018-09-20T12:53:19.759Z,6.77
2018-09-20T12:55:50.694Z,6.37
2018-09-20T12:58:26.126Z,6.87
2018-09-20T13:00:58.816Z,6.13
2018-09-20T13:03:33.237Z,5.70
2018-09-20T13:06:04.676Z,7.10
2018-09-20T13:08:35.522Z,6.43
2018-09-20T13:11:05.640Z,6.17
2018-09-20T13:13:35.860Z,5.93
2018-09-20T13:16:07.413Z,7.00
2018-09-20T13:18:40.808Z,6.43
2018-09-20T13:21:12.463Z,7.40
2018-09-20T13:23:43.708Z,6.60
2018-09-20T13:26:15.670Z,6.70
2018-09-20T13:28:47.635Z,6.83
2018-09-20T13:31:18.264Z,6.67
2018-09-20T13:33:49.511Z,6.67
2018-09-20T13:36:19.425Z,6.70
2018-09-20T13:38:50.369Z,6.67
2018-09-20T13:41:20.380Z,6.20
2018-09-20T13:43:51.595Z,6.60
2018-09-20T13:46:23.384Z,6.90
2018-09-20T13:48:54.419Z,6.00
2018-09-20T13:51:24.954Z,6.80
2018-09-20T13:53:55.893Z,7.57
2018-09-20T13:56:26.852Z,7.00
2018-09-20T13:58:59.613Z,6.90
2018-09-20T14:01:33.010Z,6.20
2018-09-20T14:04:04.051Z,6.77
2018-09-20T14:06:34.273Z,6.67
2018-09-20T14:09:07.557Z,6.80
2018-09-20T14:11:40.247Z,7.17
2018-09-20T14:14:11.492Z,7.60
2018-09-20T14:16:44.051Z,6.23
2018-09-20T14:19:16.832Z,6.23
2018-09-20T14:21:47.977Z,7.10
2018-09-20T14:24:18.832Z,6.60
2018-09-20T14:26:50.188Z,6.40
2018-09-20T14:29:20.296Z,6.33
2018-09-20T14:31:50.317Z,6.00
2018-09-20T14:34:21.154Z,6.17
2018-09-20T14:36:52.424Z,6.20
2018-09-20T14:39:23.543Z,6.20
2018-09-20T14:41:55.404Z,6.73
2018-09-20T14:44:27.270Z,7.37
2018-09-20T14:46:59.400Z,7.83
2018-09-20T14:49:31.197Z,7.43
2018-09-20T14:52:02.339Z,6.80
2018-09-20T14:54:33.482Z,6.10
2018-09-20T14:57:03.704Z,6.07
2018-09-20T14:59:33.894Z,6.80
2018-09-20T15:02:04.354Z,6.33
2018-09-20T15:04:35.255Z,6.07
2018-09-20T15:07:09.261Z,5.90
2018-09-20T15:09:40.447Z,5.90
2018-09-20T15:12:12.622Z,6.03
2018-09-20T15:22:34.496Z,7.00
2018-09-20T15:25:05.692Z,7.23
2018-09-20T15:27:38.781Z,7.80
2018-09-20T15:30:10.589Z,7.57
2018-09-20T15:32:40.669Z,6.70
2018-09-20T15:35:10.630Z,7.17
2018-09-20T15:37:46.989Z,6.80
2018-09-20T15:40:17.157Z,6.00
2018-09-20T15:42:47.069Z,6.10
2018-09-20T15:45:17.392Z,6.10
2018-09-20T15:47:49.254Z,6.57
2018-09-20T15:50:19.474Z,6.70
2018-09-20T15:52:50.685Z,6.90
2018-09-20T15:55:23.365Z,6.47
2018-09-20T15:57:56.987Z,6.70
2018-09-20T16:00:31.416Z,7.83
2018-09-20T16:03:06.248Z,6.27
2018-09-20T16:05:37.184Z,6.40
2018-09-20T16:08:08.714Z,6.63
2018-09-20T16:10:41.185Z,6.50
2018-09-20T16:13:17.062Z,6.10
2018-09-20T16:15:48.001Z,6.40
2018-09-20T16:18:18.325Z,6.47
2018-09-20T16:20:51.104Z,5.97
2018-09-20T16:23:23.898Z,6.10
2018-09-20T16:25:55.011Z,6.47
2018-09-20T16:28:38.651Z,6.90
2018-09-20T16:44:11.016Z,6.63
2018-09-20T16:46:41.550Z,6.27
2018-09-20T16:49:09.777Z,5.93
2018-09-20T16:51:37.982Z,6.40
2018-09-20T16:54:06.218Z,6.07
2018-09-20T16:56:34.415Z,6.63
2018-09-20T16:59:02.626Z,5.83
2018-09-20T17:01:30.847Z,6.20
2018-09-20T17:03:59.063Z,6.97
2018-09-20T17:06:27.258Z,6.97
2018-09-20T17:08:55.474Z,7.00
2018-09-20T17:11:23.675Z,6.83
2018-09-20T17:13:52.006Z,6.50
2018-09-20T17:16:20.288Z,6.67
2018-09-20T17:18:48.424Z,6.57
2018-09-20T17:21:16.639Z,6.80
2018-09-20T17:23:44.840Z,6.50
2018-09-20T17:26:13.059Z,7.50
2018-09-20T17:28:41.900Z,6.90
2018-09-20T17:31:10.115Z,6.90
2018-09-20T17:36:12.028Z,6.27
2018-09-20T17:38:40.671Z,6.60
2018-09-20T17:41:12.814Z,6.97
2018-09-20T17:43:52.687Z,7.60
2018-09-20T17:46:20.901Z,7.23
2018-09-20T17:48:49.174Z,7.60
2018-09-20T17:51:18.171Z,7.07
2018-09-20T17:53:46.686Z,7.57
2018-09-20T17:56:15.306Z,7.90
2018-09-20T17:58:44.224Z,6.43
2018-09-20T18:01:12.453Z,6.80
2018-09-20T18:03:40.691Z,8.53
2018-09-20T18:06:08.908Z,7.20
2018-09-20T18:08:37.127Z,7.67
2018-09-20T18:11:05.371Z,7.40
2018-09-20T18:13:33.588Z,6.53
2018-09-20T18:16:01.805Z,6.53
2018-09-20T18:18:30.026Z,6.97
2018-09-20T18:20:58.255Z,6.77
2018-09-20T18:23:26.455Z,6.60
2018-09-20T18:25:54.672Z,6.90
2018-09-20T18:28:22.915Z,6.77
2018-09-20T18:30:51.130Z,7.07
2018-09-20T18:33:19.370Z,6.63
2018-09-20T18:35:47.592Z,7.27
2018-09-20T18:38:15.807Z,6.87
2018-09-20T18:40:44.042Z,6.83
2018-09-20T18:43:12.235Z,6.97
2018-09-20T18:45:40.460Z,7.03
2018-09-20T18:48:08.666Z,6.80
2018-09-20T18:50:36.878Z,6.53
2018-09-20T18:53:05.141Z,7.10
2018-09-20T18:55:33.384Z,6.50
2018-09-20T18:58:01.555Z,8.17
2018-09-20T19:00:29.758Z,7.13
2018-09-20T19:02:57.991Z,8.00
2018-09-20T19:05:26.219Z,7.40
2018-09-20T19:07:54.443Z,7.07
2018-09-20T19:10:22.683Z,6.80
2018-09-20T19:12:50.996Z,8.40
2018-09-20T19:15:19.188Z,7.07
2018-09-20T19:17:47.407Z,7.87
2018-09-20T19:20:15.621Z,7.30
2018-09-20T19:22:43.863Z,7.73
2018-09-20T19:25:12.074Z,7.50
2018-09-20T19:27:40.301Z,7.43
2018-09-20T19:30:08.499Z,6.53
2018-09-20T19:32:36.743Z,7.37
2018-09-20T19:35:05.007Z,7.07
2018-09-20T19:37:33.260Z,7.73
2018-09-20T19:40:01.508Z,7.77
2018-09-20T19:42:29.792Z,7.93
2018-09-20T19:44:58.035Z,8.00
2018-09-20T19:47:26.331Z,7.30
2018-09-20T19:49:54.618Z,7.00
2018-09-20T19:52:22.831Z,8.17
2018-09-20T19:54:51.095Z,6.60
2018-09-20T19:57:19.319Z,7.00
2018-09-20T19:59:47.528Z,7.50
2018-09-20T20:02:15.739Z,6.63
2018-09-20T20:04:43.950Z,7.07
2018-09-20T20:07:12.175Z,7.47
2018-09-20T20:09:40.374Z,8.10
2018-09-20T20:12:08.603Z,7.10
2018-09-20T20:14:36.815Z,8.07
2018-09-20T20:17:05.035Z,7.30
2018-09-20T20:19:33.305Z,7.60
2018-09-20T20:22:01.461Z,6.80
2018-09-20T20:24:29.671Z,7.53
2018-09-20T20:26:57.863Z,7.00
2018-09-20T20:29:26.082Z,6.50
2018-09-20T20:31:54.330Z,8.03
2018-09-20T20:34:22.547Z,7.73
2018-09-20T20:36:50.902Z,8.97
2018-09-20T20:39:19.131Z,8.07
2018-09-20T20:41:47.336Z,7.40
2018-09-20T20:44:15.550Z,8.17
2018-09-20T20:46:43.766Z,8.23
2018-09-20T20:49:11.983Z,7.40
2018-09-20T20:51:40.204Z,8.43
2018-09-20T20:54:08.431Z,7.33
2018-09-20T20:56:37.077Z,7.73
2018-09-20T20:59:05.288Z,7.20
2018-09-20T21:01:33.487Z,7.03
2018-09-20T21:04:01.943Z,7.10
2018-09-20T21:06:30.154Z,7.80
2018-09-20T21:08:58.437Z,7.47
2018-09-20T21:11:26.591Z,7.53
2018-09-20T21:13:54.865Z,7.13
2018-09-20T21:16:23.058Z,6.83
2018-09-20T21:18:51.284Z,6.90
2018-09-20T21:21:19.491Z,7.67
2018-09-20T21:23:47.715Z,7.67
2018-09-20T21:26:15.992Z,7.03
2018-09-20T21:28:44.723Z,7.37
2018-09-20T21:31:12.928Z,8.20
2018-09-20T21:33:41.138Z,7.80
2018-09-20T21:36:09.355Z,7.77
2018-09-20T21:38:37.561Z,7.47
2018-09-20T21:41:05.843Z,8.20
2018-09-20T21:43:34.054Z,7.80
2018-09-20T21:46:02.270Z,7.83
2018-09-20T21:48:30.588Z,8.67
2018-09-20T21:50:59.563Z,8.07
2018-09-20T21:53:27.755Z,10.13
2018-09-20T21:55:55.992Z,8.53
2018-09-20T21:58:25.099Z,8.57
2018-09-20T22:00:59.742Z,7.40
2018-09-20T22:03:28.034Z,7.60
2018-09-20T22:05:56.271Z,7.63
2018-09-20T22:08:25.400Z,7.80
2018-09-20T22:10:53.618Z,7.73
2018-09-20T22:13:22.998Z,7.40
2018-09-20T22:15:51.220Z,7.57
2018-09-20T22:18:20.291Z,7.20
2018-09-20T22:20:48.515Z,8.30
2018-09-20T22:23:16.714Z,8.33
2018-09-20T22:25:44.935Z,8.20
2018-09-20T22:28:13.151Z,8.67
2018-09-20T22:30:41.375Z,7.20
2018-09-20T22:33:09.574Z,8.03
2018-09-20T22:35:37.800Z,7.73
2018-09-20T22:38:06.002Z,7.50
2018-09-20T22:40:34.229Z,7.30
2018-09-20T22:43:02.455Z,8.87
2018-09-20T22:45:30.783Z,8.70
2018-09-20T22:47:58.999Z,7.67
2018-09-20T22:50:27.210Z,7.50
2018-09-20T22:52:55.424Z,8.30
2018-09-20T22:55:23.644Z,8.20
2018-09-20T22:57:51.855Z,8.00
2018-09-20T23:00:22.964Z,8.10
2018-09-20T23:02:51.967Z,7.70
2018-09-20T23:05:20.201Z,8.00
2018-09-20T23:07:48.422Z,8.07
2018-09-20T23:10:16.691Z,7.70
2018-09-20T23:12:45.398Z,8.47
2018-09-20T23:15:13.607Z,19.07
2018-09-20T23:17:41.831Z,9.60
2018-09-20T23:20:10.044Z,8.80
2018-09-20T23:22:38.258Z,8.77
2018-09-20T23:25:06.503Z,8.23
2018-09-20T23:27:34.748Z,8.90
2018-09-20T23:30:02.951Z,8.40
2018-09-20T23:32:31.172Z,9.03
2018-09-20T23:34:59.392Z,9.33
2018-09-20T23:37:27.615Z,8.90
2018-09-20T23:39:55.831Z,9.00
2018-09-20T23:42:24.046Z,9.23
2018-09-20T23:44:52.262Z,7.90
2018-09-20T23:47:20.479Z,8.70
2018-09-20T23:49:48.683Z,8.43
2018-09-20T23:52:16.903Z,8.67
2018-09-20T23:54:45.107Z,8.30
2018-09-20T23:57:13.315Z,9.87
2018-09-20T23:59:41.526Z,8.60
